sensor_id;sensor_type;location;lat;lon;timestamp;pressure;altitude;pressure_sealevel;temperature;humidity
20930;BME280;21895;47.072;15.132;2024-01-15T00:00:11;95385.00;;;-6.32;72.81
20930;BME280;21895;47.072;15.132;2024-01-15T00:02:38;95393.00;;;-6.40;72.28
20930;BME280;21895;47.072;15.132;2024-01-15T00:05:05;95391.00;;;-6.28;71.92
20930;BME280;21895;47.072;15.132;2024-01-15T00:07:31;95391.00;;;-6.21;71.12
20930;BME280;21895;47.072;15.132;2024-01-15T00:09:58;95379.00;;;-6.22;70.65
20930;BME280;21895;47.072;15.132;2024-01-15T00:12:24;95370.00;;;-6.22;70.17
20930;BME280;21895;47.072;15.132;2024-01-15T00:14:51;95377.00;;;-6.47;70.05
20930;BME280;21895;47.072;15.132;2024-01-15T00:17:18;95368.00;;;-6.57;70.36
20930;BME280;21895;47.072;15.132;2024-01-15T00:19:44;95373.00;;;-6.62;70.89
20930;BME280;21895;47.072;15.132;2024-01-15T00:22:11;95370.00;;;-6.66;72.03
20930;BME280;21895;47.072;15.132;2024-01-15T00:24:38;95355.00;;;-6.54;71.76
20930;BME280;21895;47.072;15.132;2024-01-15T00:27:05;95351.00;;;-6.43;70.38
20930;BME280;21895;47.072;15.132;2024-01-15T00:29:31;95347.00;;;-6.56;69.82
20930;BME280;21895;47.072;15.132;2024-01-15T00:31:58;95340.00;;;-6.73;70.46
20930;BME280;21895;47.072;15.132;2024-01-15T00:34:24;95343.00;;;-6.61;70.77
20930;BME280;21895;47.072;15.132;2024-01-15T00:36:51;95333.00;;;-6.68;69.29
20930;BME280;21895;47.072;15.132;2024-01-15T00:39:18;95330.00;;;-6.43;69.95
20930;BME280;21895;47.072;15.132;2024-01-15T00:41:45;95330.00;;;-6.60;69.38
20930;BME280;21895;47.072;15.132;2024-01-15T00:44:11;95332.00;;;-6.59;70.17
20930;BME280;21895;47.072;15.132;2024-01-15T00:46:45;95329.00;;;-6.86;69.57
20930;BME280;21895;47.072;15.132;2024-01-15T00:49:13;95332.00;;;-6.83;69.62
20930;BME280;21895;47.072;15.132;2024-01-15T00:51:40;95323.00;;;-6.78;69.87
20930;BME280;21895;47.072;15.132;2024-01-15T00:54:07;95318.00;;;-6.84;70.60
20930;BME280;21895;47.072;15.132;2024-01-15T00:56:34;95305.00;;;-6.79;71.01
20930;BME280;21895;47.072;15.132;2024-01-15T00:59:01;95303.00;;;-6.31;71.11
20930;BME280;21895;47.072;15.132;2024-01-15T01:01:27;95305.00;;;-6.54;70.65
20930;BME280;21895;47.072;15.132;2024-01-15T01:03:54;95294.00;;;-6.58;69.39
20930;BME280;21895;47.072;15.132;2024-01-15T01:06:21;95295.00;;;-6.70;69.61
20930;BME280;21895;47.072;15.132;2024-01-15T01:08:48;95306.00;;;-6.70;70.07
20930;BME280;21895;47.072;15.132;2024-01-15T01:11:16;95293.00;;;-6.70;70.90
20930;BME280;21895;47.072;15.132;2024-01-15T01:13:43;95283.00;;;-6.57;70.70
20930;BME280;21895;47.072;15.132;2024-01-15T01:16:09;95279.00;;;-6.41;69.97
20930;BME280;21895;47.072;15.132;2024-01-15T01:18:36;95295.00;;;-6.61;70.54
20930;BME280;21895;47.072;15.132;2024-01-15T01:21:03;95289.00;;;-6.48;71.68
20930;BME280;21895;47.072;15.132;2024-01-15T01:23:29;95281.00;;;-6.46;71.88
20930;BME280;21895;47.072;15.132;2024-01-15T01:25:56;95268.00;;;-6.34;72.41
20930;BME280;21895;47.072;15.132;2024-01-15T01:28:23;95260.00;;;-6.04;72.14
20930;BME280;21895;47.072;15.132;2024-01-15T01:30:49;95264.00;;;-5.87;71.66
20930;BME280;21895;47.072;15.132;2024-01-15T01:33:16;95260.00;;;-5.86;71.08
20930;BME280;21895;47.072;15.132;2024-01-15T01:35:43;95261.00;;;-5.88;71.86
20930;BME280;21895;47.072;15.132;2024-01-15T01:38:11;95253.00;;;-5.81;71.84
20930;BME280;21895;47.072;15.132;2024-01-15T01:40:37;95243.00;;;-5.84;71.44
20930;BME280;21895;47.072;15.132;2024-01-15T01:43:05;95232.00;;;-5.75;71.78
20930;BME280;21895;47.072;15.132;2024-01-15T01:45:32;95239.00;;;-5.77;72.19
20930;BME280;21895;47.072;15.132;2024-01-15T01:48:00;95219.00;;;-5.73;70.48
20930;BME280;21895;47.072;15.132;2024-01-15T01:50:28;95207.00;;;-5.76;70.72
20930;BME280;21895;47.072;15.132;2024-01-15T01:52:56;95197.00;;;-5.77;70.96
20930;BME280;21895;47.072;15.132;2024-01-15T01:55:26;95199.00;;;-5.64;71.85
20930;BME280;21895;47.072;15.132;2024-01-15T01:57:55;95197.00;;;-5.74;72.11
20930;BME280;21895;47.072;15.132;2024-01-15T02:00:22;95183.00;;;-5.66;70.89
20930;BME280;21895;47.072;15.132;2024-01-15T02:02:49;95189.00;;;-5.76;70.52
20930;BME280;21895;47.072;15.132;2024-01-15T02:05:19;95175.00;;;-5.73;70.60
20930;BME280;21895;47.072;15.132;2024-01-15T02:07:48;95183.00;;;-5.92;71.32
20930;BME280;21895;47.072;15.132;2024-01-15T02:10:15;95180.00;;;-6.06;71.51
20930;BME280;21895;47.072;15.132;2024-01-15T02:12:43;95183.00;;;-5.92;71.99
20930;BME280;21895;47.072;15.132;2024-01-15T02:15:10;95189.00;;;-5.79;72.18
20930;BME280;21895;47.072;15.132;2024-01-15T02:18:06;95197.00;;;-5.77;72.72
20930;BME280;21895;47.072;15.132;2024-01-15T02:20:34;95196.00;;;-5.63;72.77
20930;BME280;21895;47.072;15.132;2024-01-15T02:23:13;95193.00;;;-5.44;72.11
20930;BME280;21895;47.072;15.132;2024-01-15T02:25:45;95192.00;;;-5.34;71.39
20930;BME280;21895;47.072;15.132;2024-01-15T02:28:17;95190.00;;;-5.65;71.61
20930;BME280;21895;47.072;15.132;2024-01-15T02:30:44;95184.00;;;-5.33;70.99
20930;BME280;21895;47.072;15.132;2024-01-15T02:33:12;95186.00;;;-5.41;71.43
20930;BME280;21895;47.072;15.132;2024-01-15T02:35:39;95190.00;;;-5.46;71.51
20930;BME280;21895;47.072;15.132;2024-01-15T02:38:06;95186.00;;;-5.50;71.35
20930;BME280;21895;47.072;15.132;2024-01-15T02:40:34;95188.00;;;-5.40;73.40
20930;BME280;21895;47.072;15.132;2024-01-15T02:43:00;95185.00;;;-5.35;73.27
20930;BME280;21895;47.072;15.132;2024-01-15T02:45:27;95175.00;;;-5.29;72.29
20930;BME280;21895;47.072;15.132;2024-01-15T02:47:54;95180.00;;;-5.35;71.99
20930;BME280;21895;47.072;15.132;2024-01-15T02:50:21;95178.00;;;-5.30;72.23
20930;BME280;21895;47.072;15.132;2024-01-15T02:52:47;95157.00;;;-5.20;72.01
20930;BME280;21895;47.072;15.132;2024-01-15T02:55:14;95152.00;;;-5.12;72.05
20930;BME280;21895;47.072;15.132;2024-01-15T02:57:41;95149.00;;;-5.18;72.33
20930;BME280;21895;47.072;15.132;2024-01-15T03:00:08;95147.00;;;-5.07;71.71
20930;BME280;21895;47.072;15.132;2024-01-15T03:02:39;95141.00;;;-4.95;71.25
20930;BME280;21895;47.072;15.132;2024-01-15T03:05:10;95128.00;;;-5.01;71.01
20930;BME280;21895;47.072;15.132;2024-01-15T03:07:37;95128.00;;;-5.09;71.41
20930;BME280;21895;47.072;15.132;2024-01-15T03:10:06;95130.00;;;-5.05;71.82
20930;BME280;21895;47.072;15.132;2024-01-15T03:12:32;95125.00;;;-4.96;72.26
20930;BME280;21895;47.072;15.132;2024-01-15T03:14:59;95118.00;;;-4.96;72.52
20930;BME280;21895;47.072;15.132;2024-01-15T03:17:26;95116.00;;;-5.02;72.45
20930;BME280;21895;47.072;15.132;2024-01-15T03:19:52;95128.00;;;-5.15;73.18
20930;BME280;21895;47.072;15.132;2024-01-15T03:22:19;95106.00;;;-5.13;73.33
20930;BME280;21895;47.072;15.132;2024-01-15T03:24:46;95111.00;;;-4.99;73.45
20930;BME280;21895;47.072;15.132;2024-01-15T03:27:13;95113.00;;;-4.93;73.37
20930;BME280;21895;47.072;15.132;2024-01-15T03:29:40;95120.00;;;-4.83;73.83
20930;BME280;21895;47.072;15.132;2024-01-15T03:32:07;95127.00;;;-4.72;73.47
20930;BME280;21895;47.072;15.132;2024-01-15T03:34:34;95118.00;;;-4.68;73.44
20930;BME280;21895;47.072;15.132;2024-01-15T03:37:01;95113.00;;;-4.58;72.59
20930;BME280;21895;47.072;15.132;2024-01-15T03:39:27;95107.00;;;-4.57;71.96
20930;BME280;21895;47.072;15.132;2024-01-15T03:41:55;95104.00;;;-4.69;72.18
20930;BME280;21895;47.072;15.132;2024-01-15T03:44:21;95119.00;;;-4.66;72.23
20930;BME280;21895;47.072;15.132;2024-01-15T03:46:48;95100.00;;;-4.53;72.35
20930;BME280;21895;47.072;15.132;2024-01-15T03:49:14;95098.00;;;-4.49;72.69
20930;BME280;21895;47.072;15.132;2024-01-15T03:51:41;95090.00;;;-4.46;72.17
20930;BME280;21895;47.072;15.132;2024-01-15T03:54:08;95086.00;;;-4.48;72.57
20930;BME280;21895;47.072;15.132;2024-01-15T03:56:34;95086.00;;;-4.60;73.18
20930;BME280;21895;47.072;15.132;2024-01-15T03:59:01;95084.00;;;-4.45;73.05
20930;BME280;21895;47.072;15.132;2024-01-15T04:01:28;95085.00;;;-4.41;72.74
20930;BME280;21895;47.072;15.132;2024-01-15T04:03:55;95080.00;;;-4.16;73.27
20930;BME280;21895;47.072;15.132;2024-01-15T04:06:22;95075.00;;;-4.15;74.30
20930;BME280;21895;47.072;15.132;2024-01-15T04:08:49;95074.00;;;-4.14;74.00
20930;BME280;21895;47.072;15.132;2024-01-15T04:11:16;95078.00;;;-4.05;72.96
20930;BME280;21895;47.072;15.132;2024-01-15T04:13:42;95070.00;;;-4.05;72.98
20930;BME280;21895;47.072;15.132;2024-01-15T04:16:09;95068.00;;;-4.21;73.21
20930;BME280;21895;47.072;15.132;2024-01-15T04:18:35;95066.00;;;-4.09;73.13
20930;BME280;21895;47.072;15.132;2024-01-15T04:21:05;95064.00;;;-4.12;73.35
20930;BME280;21895;47.072;15.132;2024-01-15T04:23:33;95073.00;;;-4.06;73.15
20930;BME280;21895;47.072;15.132;2024-01-15T04:25:59;95073.00;;;-3.98;72.34
20930;BME280;21895;47.072;15.132;2024-01-15T04:28:26;95078.00;;;-4.09;72.35
20930;BME280;21895;47.072;15.132;2024-01-15T04:30:53;95064.00;;;-4.15;73.70
20930;BME280;21895;47.072;15.132;2024-01-15T04:33:19;95057.00;;;-4.01;73.90
20930;BME280;21895;47.072;15.132;2024-01-15T04:35:46;95076.00;;;-4.01;73.58
20930;BME280;21895;47.072;15.132;2024-01-15T04:38:13;95067.00;;;-4.03;72.96
20930;BME280;21895;47.072;15.132;2024-01-15T04:40:40;95075.00;;;-4.18;73.36
20930;BME280;21895;47.072;15.132;2024-01-15T04:43:07;95073.00;;;-3.87;74.03
20930;BME280;21895;47.072;15.132;2024-01-15T04:45:33;95069.00;;;-3.80;74.58
20930;BME280;21895;47.072;15.132;2024-01-15T04:48:00;95075.00;;;-3.80;73.44
20930;BME280;21895;47.072;15.132;2024-01-15T04:50:26;95068.00;;;-3.88;73.19
20930;BME280;21895;47.072;15.132;2024-01-15T04:52:53;95086.00;;;-3.86;73.03
20930;BME280;21895;47.072;15.132;2024-01-15T04:55:20;95075.00;;;-3.90;73.42
20930;BME280;21895;47.072;15.132;2024-01-15T04:57:46;95082.00;;;-3.86;73.63
20930;BME280;21895;47.072;15.132;2024-01-15T05:00:13;95089.00;;;-3.91;73.75
20930;BME280;21895;47.072;15.132;2024-01-15T05:02:41;95088.00;;;-3.90;73.83
20930;BME280;21895;47.072;15.132;2024-01-15T05:05:08;95092.00;;;-3.97;73.90
20930;BME280;21895;47.072;15.132;2024-01-15T05:07:34;95092.00;;;-3.97;73.61
20930;BME280;21895;47.072;15.132;2024-01-15T05:10:01;95091.00;;;-4.01;74.13
20930;BME280;21895;47.072;15.132;2024-01-15T05:12:27;95102.00;;;-3.97;74.07
20930;BME280;21895;47.072;15.132;2024-01-15T05:14:54;95102.00;;;-3.91;73.69
20930;BME280;21895;47.072;15.132;2024-01-15T05:17:21;95110.00;;;-3.82;73.33
20930;BME280;21895;47.072;15.132;2024-01-15T05:19:47;95118.00;;;-3.92;73.45
20930;BME280;21895;47.072;15.132;2024-01-15T05:22:14;95118.00;;;-3.85;73.26
20930;BME280;21895;47.072;15.132;2024-01-15T05:24:41;95106.00;;;-3.89;73.66
20930;BME280;21895;47.072;15.132;2024-01-15T05:27:08;95108.00;;;-3.80;74.15
20930;BME280;21895;47.072;15.132;2024-01-15T05:29:34;95114.00;;;-3.80;73.54
20930;BME280;21895;47.072;15.132;2024-01-15T05:32:01;95108.00;;;-3.91;73.64
20930;BME280;21895;47.072;15.132;2024-01-15T05:34:28;95107.00;;;-3.88;73.73
20930;BME280;21895;47.072;15.132;2024-01-15T05:36:55;95106.00;;;-3.93;73.13
20930;BME280;21895;47.072;15.132;2024-01-15T05:39:22;95112.00;;;-4.03;73.61
20930;BME280;21895;47.072;15.132;2024-01-15T05:41:50;95113.00;;;-4.07;73.86
20930;BME280;21895;47.072;15.132;2024-01-15T05:44:16;95116.00;;;-4.05;73.69
20930;BME280;21895;47.072;15.132;2024-01-15T05:46:43;95115.00;;;-4.11;74.16
20930;BME280;21895;47.072;15.132;2024-01-15T05:49:10;95113.00;;;-4.25;74.87
20930;BME280;21895;47.072;15.132;2024-01-15T05:51:36;95114.00;;;-4.15;73.99
20930;BME280;21895;47.072;15.132;2024-01-15T05:54:03;95110.00;;;-4.10;73.89
20930;BME280;21895;47.072;15.132;2024-01-15T05:56:30;95113.00;;;-4.14;73.46
20930;BME280;21895;47.072;15.132;2024-01-15T05:58:57;95114.00;;;-4.29;73.13
20930;BME280;21895;47.072;15.132;2024-01-15T06:01:23;95118.00;;;-4.22;72.32
20930;BME280;21895;47.072;15.132;2024-01-15T06:03:50;95120.00;;;-4.37;72.30
20930;BME280;21895;47.072;15.132;2024-01-15T06:06:17;95120.00;;;-4.48;72.77
20930;BME280;21895;47.072;15.132;2024-01-15T06:08:44;95113.00;;;-4.43;74.12
20930;BME280;21895;47.072;15.132;2024-01-15T06:11:10;95114.00;;;-4.57;73.32
20930;BME280;21895;47.072;15.132;2024-01-15T06:13:37;95116.00;;;-4.61;73.29
20930;BME280;21895;47.072;15.132;2024-01-15T06:16:14;95105.00;;;-4.52;72.79
20930;BME280;21895;47.072;15.132;2024-01-15T06:18:41;95113.00;;;-4.76;72.93
20930;BME280;21895;47.072;15.132;2024-01-15T06:21:08;95119.00;;;-4.80;72.97
20930;BME280;21895;47.072;15.132;2024-01-15T06:23:37;95114.00;;;-4.71;72.38
20930;BME280;21895;47.072;15.132;2024-01-15T06:26:04;95111.00;;;-4.82;71.61
20930;BME280;21895;47.072;15.132;2024-01-15T06:28:31;95126.00;;;-4.91;71.69
20930;BME280;21895;47.072;15.132;2024-01-15T06:30:58;95121.00;;;-4.99;72.50
20930;BME280;21895;47.072;15.132;2024-01-15T06:33:25;95126.00;;;-4.94;73.12
20930;BME280;21895;47.072;15.132;2024-01-15T06:35:51;95123.00;;;-4.67;73.07
20930;BME280;21895;47.072;15.132;2024-01-15T06:38:18;95120.00;;;-4.73;73.89
20930;BME280;21895;47.072;15.132;2024-01-15T06:40:45;95128.00;;;-4.45;73.79
20930;BME280;21895;47.072;15.132;2024-01-15T06:43:12;95128.00;;;-4.58;74.56
20930;BME280;21895;47.072;15.132;2024-01-15T06:45:39;95127.00;;;-4.77;73.99
20930;BME280;21895;47.072;15.132;2024-01-15T06:48:06;95132.00;;;-4.82;73.27
20930;BME280;21895;47.072;15.132;2024-01-15T06:50:34;95128.00;;;-4.95;72.59
20930;BME280;21895;47.072;15.132;2024-01-15T06:53:00;95130.00;;;-4.96;72.01
20930;BME280;21895;47.072;15.132;2024-01-15T06:55:27;95151.00;;;-4.99;72.05
20930;BME280;21895;47.072;15.132;2024-01-15T06:57:54;95156.00;;;-5.03;72.24
20930;BME280;21895;47.072;15.132;2024-01-15T07:00:21;95160.00;;;-5.00;71.78
20930;BME280;21895;47.072;15.132;2024-01-15T07:02:47;95163.00;;;-5.15;71.90
20930;BME280;21895;47.072;15.132;2024-01-15T07:05:14;95167.00;;;-5.18;71.39
20930;BME280;21895;47.072;15.132;2024-01-15T07:07:41;95173.00;;;-5.20;71.38
20930;BME280;21895;47.072;15.132;2024-01-15T07:10:08;95177.00;;;-5.23;71.59
20930;BME280;21895;47.072;15.132;2024-01-15T07:12:35;95178.00;;;-5.33;71.05
20930;BME280;21895;47.072;15.132;2024-01-15T07:15:01;95187.00;;;-5.26;70.84
20930;BME280;21895;47.072;15.132;2024-01-15T07:17:28;95177.00;;;-4.88;73.19
20930;BME280;21895;47.072;15.132;2024-01-15T07:19:55;95184.00;;;-4.84;74.06
20930;BME280;21895;47.072;15.132;2024-01-15T07:22:21;95188.00;;;-4.78;73.18
20930;BME280;21895;47.072;15.132;2024-01-15T07:24:48;95194.00;;;-4.74;72.38
20930;BME280;21895;47.072;15.132;2024-01-15T07:27:14;95190.00;;;-4.73;72.79
20930;BME280;21895;47.072;15.132;2024-01-15T07:29:41;95194.00;;;-4.74;74.51
20930;BME280;21895;47.072;15.132;2024-01-15T07:32:09;95201.00;;;-4.47;73.79
20930;BME280;21895;47.072;15.132;2024-01-15T07:34:37;95199.00;;;-4.50;73.58
20930;BME280;21895;47.072;15.132;2024-01-15T07:37:04;95200.00;;;-4.21;73.80
20930;BME280;21895;47.072;15.132;2024-01-15T07:39:30;95207.00;;;-4.17;74.17
20930;BME280;21895;47.072;15.132;2024-01-15T07:41:57;95203.00;;;-4.11;74.44
20930;BME280;21895;47.072;15.132;2024-01-15T07:44:24;95209.00;;;-4.07;73.85
20930;BME280;21895;47.072;15.132;2024-01-15T07:46:50;95210.00;;;-4.03;73.04
20930;BME280;21895;47.072;15.132;2024-01-15T07:49:17;95209.00;;;-4.04;73.44
20930;BME280;21895;47.072;15.132;2024-01-15T07:51:44;95212.00;;;-3.88;73.72
20930;BME280;21895;47.072;15.132;2024-01-15T07:54:11;95216.00;;;-3.72;73.69
20930;BME280;21895;47.072;15.132;2024-01-15T07:59:28;95224.00;;;-3.47;73.43
20930;BME280;21895;47.072;15.132;2024-01-15T08:01:54;95218.00;;;-3.35;73.01
20930;BME280;21895;47.072;15.132;2024-01-15T08:04:21;95219.00;;;-3.17;73.09
20930;BME280;21895;47.072;15.132;2024-01-15T08:06:48;95219.00;;;-3.06;73.63
20930;BME280;21895;47.072;15.132;2024-01-15T08:09:15;95217.00;;;-2.94;73.64
20930;BME280;21895;47.072;15.132;2024-01-15T08:11:43;95217.00;;;-2.97;73.74
20930;BME280;21895;47.072;15.132;2024-01-15T08:14:11;95214.00;;;-2.71;73.47
20930;BME280;21895;47.072;15.132;2024-01-15T08:16:38;95209.00;;;-2.69;73.06
20930;BME280;21895;47.072;15.132;2024-01-15T08:19:05;95210.00;;;-2.64;73.37
20930;BME280;21895;47.072;15.132;2024-01-15T08:21:32;95203.00;;;-2.34;72.27
20930;BME280;21895;47.072;15.132;2024-01-15T08:24:02;95208.00;;;-2.29;72.32
20930;BME280;21895;47.072;15.132;2024-01-15T08:26:30;95213.00;;;-2.16;72.32
20930;BME280;21895;47.072;15.132;2024-01-15T08:28:56;95221.00;;;-1.94;72.10
20930;BME280;21895;47.072;15.132;2024-01-15T08:31:23;95220.00;;;-1.96;72.47
20930;BME280;21895;47.072;15.132;2024-01-15T08:33:50;95216.00;;;-1.91;72.73
20930;BME280;21895;47.072;15.132;2024-01-15T08:36:18;95216.00;;;-1.76;72.77
20930;BME280;21895;47.072;15.132;2024-01-15T08:38:45;95221.00;;;-1.65;72.76
20930;BME280;21895;47.072;15.132;2024-01-15T08:41:12;95217.00;;;-1.32;72.73
20930;BME280;21895;47.072;15.132;2024-01-15T08:43:38;95217.00;;;-1.04;71.62
20930;BME280;21895;47.072;15.132;2024-01-15T08:46:05;95220.00;;;-1.01;71.77
20930;BME280;21895;47.072;15.132;2024-01-15T08:48:32;95230.00;;;-0.93;71.43
20930;BME280;21895;47.072;15.132;2024-01-15T08:50:59;95236.00;;;-0.76;71.07
20930;BME280;21895;47.072;15.132;2024-01-15T08:53:25;95230.00;;;-0.63;71.27
20930;BME280;21895;47.072;15.132;2024-01-15T08:55:52;95231.00;;;-0.46;71.32
20930;BME280;21895;47.072;15.132;2024-01-15T08:58:18;95229.00;;;-0.37;71.10
20930;BME280;21895;47.072;15.132;2024-01-15T09:00:45;95231.00;;;-0.18;71.13
20930;BME280;21895;47.072;15.132;2024-01-15T09:03:12;95233.00;;;0.02;71.65
20930;BME280;21895;47.072;15.132;2024-01-15T09:05:39;95238.00;;;0.20;72.45
20930;BME280;21895;47.072;15.132;2024-01-15T09:08:07;95234.00;;;0.44;72.36
20930;BME280;21895;47.072;15.132;2024-01-15T09:10:33;95227.00;;;0.53;72.16
20930;BME280;21895;47.072;15.132;2024-01-15T09:13:00;95231.00;;;0.56;72.27
20930;BME280;21895;47.072;15.132;2024-01-15T09:15:26;95232.00;;;0.71;72.01
20930;BME280;21895;47.072;15.132;2024-01-15T09:17:54;95229.00;;;0.77;71.91
20930;BME280;21895;47.072;15.132;2024-01-15T09:20:20;95233.00;;;1.07;71.47
20930;BME280;21895;47.072;15.132;2024-01-15T09:22:47;95232.00;;;1.17;70.99
20930;BME280;21895;47.072;15.132;2024-01-15T09:25:13;95229.00;;;1.37;71.12
20930;BME280;21895;47.072;15.132;2024-01-15T09:27:40;95219.00;;;1.59;70.96
20930;BME280;21895;47.072;15.132;2024-01-15T09:30:08;95222.00;;;1.78;70.15
20930;BME280;21895;47.072;15.132;2024-01-15T09:32:34;95218.00;;;1.87;69.06
20930;BME280;21895;47.072;15.132;2024-01-15T09:35:01;95216.00;;;1.92;68.40
20930;BME280;21895;47.072;15.132;2024-01-15T09:37:27;95212.00;;;2.01;67.85
20930;BME280;21895;47.072;15.132;2024-01-15T09:40:14;95209.00;;;2.14;67.44
20930;BME280;21895;47.072;15.132;2024-01-15T09:42:42;95211.00;;;2.34;67.19
20930;BME280;21895;47.072;15.132;2024-01-15T09:45:10;95212.00;;;2.38;66.67
20930;BME280;21895;47.072;15.132;2024-01-15T09:47:37;95205.00;;;2.53;66.55
20930;BME280;21895;47.072;15.132;2024-01-15T09:50:09;95211.00;;;2.66;65.87
20930;BME280;21895;47.072;15.132;2024-01-15T09:52:52;95206.00;;;2.77;65.53
20930;BME280;21895;47.072;15.132;2024-01-15T09:55:19;95204.00;;;2.91;65.41
20930;BME280;21895;47.072;15.132;2024-01-15T09:57:45;95210.00;;;3.00;65.26
20930;BME280;21895;47.072;15.132;2024-01-15T10:00:12;95207.00;;;3.13;64.86
20930;BME280;21895;47.072;15.132;2024-01-15T10:02:39;95193.00;;;3.23;64.20
20930;BME280;21895;47.072;15.132;2024-01-15T10:05:07;95189.00;;;3.34;64.45
20930;BME280;21895;47.072;15.132;2024-01-15T10:07:36;95188.00;;;3.54;63.41
20930;BME280;21895;47.072;15.132;2024-01-15T10:10:04;95183.00;;;3.48;64.23
20930;BME280;21895;47.072;15.132;2024-01-15T10:12:32;95178.00;;;3.51;64.83
20930;BME280;21895;47.072;15.132;2024-01-15T10:14:59;95171.00;;;3.67;64.35
20930;BME280;21895;47.072;15.132;2024-01-15T10:17:25;95162.00;;;3.78;64.38
20930;BME280;21895;47.072;15.132;2024-01-15T10:19:54;95162.00;;;3.81;63.80
20930;BME280;21895;47.072;15.132;2024-01-15T10:22:21;95158.00;;;3.99;63.28
20930;BME280;21895;47.072;15.132;2024-01-15T10:24:47;95153.00;;;4.01;62.75
20930;BME280;21895;47.072;15.132;2024-01-15T10:27:15;95146.00;;;4.03;62.36
20930;BME280;21895;47.072;15.132;2024-01-15T10:29:43;95154.00;;;4.25;61.75
20930;BME280;21895;47.072;15.132;2024-01-15T10:32:11;95144.00;;;4.19;61.59
20930;BME280;21895;47.072;15.132;2024-01-15T10:34:39;95145.00;;;4.26;61.01
20930;BME280;21895;47.072;15.132;2024-01-15T10:37:10;95140.00;;;4.44;60.06
20930;BME280;21895;47.072;15.132;2024-01-15T10:39:37;95144.00;;;4.60;56.85
20930;BME280;21895;47.072;15.132;2024-01-15T10:42:05;95139.00;;;4.67;54.98
20930;BME280;21895;47.072;15.132;2024-01-15T10:44:32;95135.00;;;4.68;55.48
20930;BME280;21895;47.072;15.132;2024-01-15T10:46:59;95135.00;;;4.88;54.86
20930;BME280;21895;47.072;15.132;2024-01-15T10:49:26;95131.00;;;4.94;55.71
20930;BME280;21895;47.072;15.132;2024-01-15T10:52:03;95132.00;;;4.85;54.35
20930;BME280;21895;47.072;15.132;2024-01-15T10:54:31;95132.00;;;5.16;51.38
20930;BME280;21895;47.072;15.132;2024-01-15T10:56:58;95134.00;;;5.03;51.92
20930;BME280;21895;47.072;15.132;2024-01-15T10:59:25;95129.00;;;5.10;52.50
20930;BME280;21895;47.072;15.132;2024-01-15T11:01:53;95122.00;;;5.19;51.08
20930;BME280;21895;47.072;15.132;2024-01-15T11:04:21;95123.00;;;5.19;50.42
20930;BME280;21895;47.072;15.132;2024-01-15T11:06:53;95122.00;;;5.08;50.05
20930;BME280;21895;47.072;15.132;2024-01-15T11:09:23;95118.00;;;5.35;49.40
20930;BME280;21895;47.072;15.132;2024-01-15T11:12:07;95115.00;;;5.34;49.22
20930;BME280;21895;47.072;15.132;2024-01-15T11:15:04;95117.00;;;5.27;49.70
20930;BME280;21895;47.072;15.132;2024-01-15T11:17:59;95106.00;;;5.32;48.55
20930;BME280;21895;47.072;15.132;2024-01-15T11:20:27;95107.00;;;5.21;47.93
20930;BME280;21895;47.072;15.132;2024-01-15T11:22:54;95103.00;;;5.23;47.35
20930;BME280;21895;47.072;15.132;2024-01-15T11:25:23;95107.00;;;5.29;47.88
20930;BME280;21895;47.072;15.132;2024-01-15T11:27:54;95106.00;;;5.19;47.92
20930;BME280;21895;47.072;15.132;2024-01-15T11:30:25;95099.00;;;5.42;47.58
20930;BME280;21895;47.072;15.132;2024-01-15T11:32:52;95107.00;;;5.36;47.42
20930;BME280;21895;47.072;15.132;2024-01-15T11:35:19;95104.00;;;5.39;47.85
20930;BME280;21895;47.072;15.132;2024-01-15T11:38:37;95101.00;;;5.42;48.22
20930;BME280;21895;47.072;15.132;2024-01-15T11:41:14;95101.00;;;5.35;48.55
20930;BME280;21895;47.072;15.132;2024-01-15T11:43:44;95092.00;;;5.40;48.38
20930;BME280;21895;47.072;15.132;2024-01-15T11:46:12;95096.00;;;5.54;48.57
20930;BME280;21895;47.072;15.132;2024-01-15T11:48:44;95100.00;;;5.59;47.47
20930;BME280;21895;47.072;15.132;2024-01-15T11:51:12;95092.00;;;5.65;47.10
20930;BME280;21895;47.072;15.132;2024-01-15T11:53:59;95090.00;;;5.82;46.52
20930;BME280;21895;47.072;15.132;2024-01-15T11:56:31;95092.00;;;5.80;46.41
20930;BME280;21895;47.072;15.132;2024-01-15T11:58:58;95084.00;;;5.66;46.80
20930;BME280;21895;47.072;15.132;2024-01-15T12:01:25;95087.00;;;5.65;46.96
20930;BME280;21895;47.072;15.132;2024-01-15T12:03:52;95081.00;;;5.66;46.90
20930;BME280;21895;47.072;15.132;2024-01-15T12:06:18;95076.00;;;5.63;46.77
20930;BME280;21895;47.072;15.132;2024-01-15T12:08:48;95065.00;;;5.66;47.01
20930;BME280;21895;47.072;15.132;2024-01-15T12:11:18;95065.00;;;5.66;46.40
20930;BME280;21895;47.072;15.132;2024-01-15T12:13:46;95061.00;;;5.67;47.50
20930;BME280;21895;47.072;15.132;2024-01-15T12:16:13;95057.00;;;5.76;47.02
20930;BME280;21895;47.072;15.132;2024-01-15T12:18:41;95054.00;;;5.73;46.84
20930;BME280;21895;47.072;15.132;2024-01-15T12:21:09;95052.00;;;5.75;47.01
20930;BME280;21895;47.072;15.132;2024-01-15T12:23:36;95049.00;;;5.78;46.27
20930;BME280;21895;47.072;15.132;2024-01-15T12:26:03;95044.00;;;5.77;46.55
20930;BME280;21895;47.072;15.132;2024-01-15T12:28:30;95044.00;;;5.73;46.21
20930;BME280;21895;47.072;15.132;2024-01-15T12:30:57;95037.00;;;5.71;46.17
20930;BME280;21895;47.072;15.132;2024-01-15T12:33:25;95040.00;;;5.65;46.35
20930;BME280;21895;47.072;15.132;2024-01-15T12:35:55;95043.00;;;5.54;46.65
20930;BME280;21895;47.072;15.132;2024-01-15T12:38:22;95044.00;;;5.43;46.79
20930;BME280;21895;47.072;15.132;2024-01-15T12:40:49;95038.00;;;5.33;47.35
20930;BME280;21895;47.072;15.132;2024-01-15T12:43:17;95037.00;;;5.30;47.45
20930;BME280;21895;47.072;15.132;2024-01-15T12:45:44;95038.00;;;5.33;47.01
20930;BME280;21895;47.072;15.132;2024-01-15T12:48:10;95040.00;;;5.35;47.36
20930;BME280;21895;47.072;15.132;2024-01-15T12:50:38;95043.00;;;5.40;47.29
20930;BME280;21895;47.072;15.132;2024-01-15T12:53:04;95035.00;;;5.47;46.91
20930;BME280;21895;47.072;15.132;2024-01-15T12:55:31;95032.00;;;5.54;46.97
20930;BME280;21895;47.072;15.132;2024-01-15T12:57:58;95032.00;;;5.61;46.94